Time;durP1;ratioP1;P1;durP2;ratioP2;P2;SDS_P1;SDS_P2;PMS_P1;PMS_P2;Temp;Humidity;BMP_temperature;BMP_pressure;BME280_temperature;BME280_humidity;BME280_pressure;Samples;Min_cycle;Max_cycle;Signal;HPM_P1;HPM_P2
2023/08/19 00:01:52;;;;;;;;;;;24.20;56.30;;;;;;1571760;74;666;-56
2023/08/19 00:03:54;;;;;;;;;;;24.20;56.30;;;;;;1564455;74;748;-56
2023/08/19 00:05:56;;;;;;;;;;;24.30;56.50;;;;;;1570921;74;1938;-56
2023/08/19 00:07:58;;;;;;;;;;;24.20;56.30;;;;;;1571463;73;668;-54
2023/08/19 00:10:02;;;;;;;;;;;24.20;56.40;;;;;;1562385;74;1134;-53
2023/08/19 00:12:04;;;;;;;;;;;24.20;56.40;;;;;;1561347;75;2220;-56
2023/08/19 00:14:06;;;;;;;;;;;24.20;56.30;;;;;;1557805;75;719;-53
2023/08/19 00:16:08;;;;;;;;;;;24.20;56.30;;;;;;1557436;74;656;-54
2023/08/19 00:18:10;;;;;;;;;;;24.20;56.30;;;;;;1559459;74;620;-54
2023/08/19 00:20:12;;;;;;;;;;;24.20;56.30;;;;;;1567056;74;1158;-56
2023/08/19 00:22:14;;;;;;;;;;;24.30;56.40;;;;;;1571383;74;702;-56
2023/08/19 00:24:16;;;;;;;;;;;24.20;56.30;;;;;;1565670;75;1933;-55
2023/08/19 00:26:18;;;;;;;;;;;24.20;56.30;;;;;;1568627;75;670;-54
2023/08/19 00:28:20;;;;;;;;;;;24.20;56.30;;;;;;1556802;74;769;-55
2023/08/19 00:30:21;;;;;;;;;;;24.20;56.30;;;;;;1560077;74;1113;-53
2023/08/19 00:32:23;;;;;;;;;;;24.20;56.40;;;;;;1572983;74;635;-56
2023/08/19 00:34:25;;;;;;;;;;;24.20;56.40;;;;;;1566635;74;675;-56
2023/08/19 00:36:27;;;;;;;;;;;24.20;56.40;;;;;;1563678;74;719;-55
2023/08/19 00:38:29;;;;;;;;;;;24.20;56.40;;;;;;1551473;75;1321;-53
2023/08/19 00:40:31;;;;;;;;;;;24.30;56.50;;;;;;1553233;75;1112;-55
2023/08/19 00:42:33;;;;;;;;;;;24.20;56.40;;;;;;1550855;75;754;-54
2023/08/19 00:44:34;;;;;;;;;;;24.30;56.50;;;;;;1546267;75;1946;-53
2023/08/19 00:46:36;;;;;;;;;;;24.20;56.40;;;;;;1544190;75;712;-56
2023/08/19 00:48:38;;;;;;;;;;;24.20;56.40;;;;;;1551177;75;741;-57
2023/08/19 00:50:40;;;;;;;;;;;24.20;56.30;;;;;;1547042;76;1184;-57
2023/08/19 00:52:42;;;;;;;;;;;24.20;56.40;;;;;;1543573;75;1536;-56
2023/08/19 00:54:44;;;;;;;;;;;24.30;56.50;;;;;;1559473;75;731;-56
2023/08/19 00:56:46;;;;;;;;;;;24.20;56.50;;;;;;1553275;76;708;-55
2023/08/19 00:58:48;;;;;;;;;;;24.20;56.50;;;;;;1529708;76;1164;-54
2023/08/19 01:00:50;;;;;;;;;;;24.20;56.50;;;;;;1554727;76;814;-53
2023/08/19 01:02:52;;;;;;;;;;;24.20;56.60;;;;;;1564890;74;793;-53
2023/08/19 01:04:54;;;;;;;;;;;24.20;56.50;;;;;;1530178;76;1936;-56
2023/08/19 01:06:57;;;;;;;;;;;24.20;56.60;;;;;;1552913;76;1573;-56
2023/08/19 01:09:04;;;;;;;;;;;24.20;56.60;;;;;;1561589;74;2051;-53
2023/08/19 01:11:16;;;;;;;;;;;24.20;56.60;;;;;;1554295;75;2199;-56
2023/08/19 01:13:18;;;;;;;;;;;24.20;56.60;;;;;;1561577;75;681;-54
2023/08/19 01:15:21;;;;;;;;;;;24.20;56.60;;;;;;1570738;74;718;-56
2023/08/19 01:17:25;;;;;;;;;;;24.20;56.60;;;;;;1569620;74;734;-56
2023/08/19 01:19:30;;;;;;;;;;;24.20;56.60;;;;;;1566386;75;1161;-56
2023/08/19 01:21:32;;;;;;;;;;;24.20;56.60;;;;;;1561834;74;1517;-56
2023/08/19 01:23:35;;;;;;;;;;;24.20;56.60;;;;;;1565795;75;742;-55
2023/08/19 01:25:37;;;;;;;;;;;24.20;56.60;;;;;;1560675;74;1934;-55
2023/08/19 01:27:39;;;;;;;;;;;24.20;56.60;;;;;;1564458;74;730;-55
2023/08/19 01:29:41;;;;;;;;;;;24.20;56.70;;;;;;1571078;74;1138;-54
2023/08/19 01:31:43;;;;;;;;;;;24.30;56.70;;;;;;1571126;75;774;-56
2023/08/19 01:33:44;;;;;;;;;;;24.20;56.60;;;;;;1559056;74;658;-54
2023/08/19 01:35:48;;;;;;;;;;;24.20;56.70;;;;;;1530078;78;1592;-55
2023/08/19 01:38:00;;;;;;;;;;;24.20;56.60;;;;;;1551922;75;1991;-53
2023/08/19 01:40:03;;;;;;;;;;;24.20;56.70;;;;;;1547048;76;1301;-56
2023/08/19 01:42:05;;;;;;;;;;;24.20;56.70;;;;;;1552113;75;667;-54
2023/08/19 01:44:07;;;;;;;;;;;24.20;56.70;;;;;;1546369;75;661;-53
2023/08/19 01:46:09;;;;;;;;;;;24.20;56.70;;;;;;1543506;75;1965;-54
2023/08/19 01:48:11;;;;;;;;;;;24.20;56.70;;;;;;1559841;76;672;-55
2023/08/19 01:50:13;;;;;;;;;;;24.20;56.70;;;;;;1543794;76;1564;-56
2023/08/19 01:52:15;;;;;;;;;;;24.20;56.70;;;;;;1550408;75;688;-54
2023/08/19 01:54:16;;;;;;;;;;;24.20;56.70;;;;;;1559700;76;732;-56
2023/08/19 01:56:18;;;;;;;;;;;24.20;56.70;;;;;;1563999;75;681;-54
2023/08/19 01:58:20;;;;;;;;;;;24.20;56.70;;;;;;1553585;75;694;-52
2023/08/19 02:00:22;;;;;;;;;;;24.20;56.70;;;;;;1560784;76;1149;-56
2023/08/19 02:02:24;;;;;;;;;;;24.20;56.70;;;;;;1556650;75;752;-56
2023/08/19 02:04:26;;;;;;;;;;;24.20;56.70;;;;;;1559270;75;1354;-55
2023/08/19 02:06:29;;;;;;;;;;;24.20;56.80;;;;;;1556567;75;1932;-56
2023/08/19 02:08:31;;;;;;;;;;;24.20;56.80;;;;;;1543035;76;716;-55
2023/08/19 02:10:33;;;;;;;;;;;24.20;57.00;;;;;;1546459;76;1074;-53
2023/08/19 02:12:35;;;;;;;;;;;24.20;57.00;;;;;;1546703;75;678;-56
2023/08/19 02:14:37;;;;;;;;;;;24.10;57.20;;;;;;1555346;75;751;-56
2023/08/19 02:16:39;;;;;;;;;;;24.20;57.00;;;;;;1553919;76;1344;-55
2023/08/19 02:18:41;;;;;;;;;;;24.20;57.30;;;;;;1548932;75;695;-55
2023/08/19 02:20:44;;;;;;;;;;;24.20;57.40;;;;;;1559419;76;1156;-55
2023/08/19 02:22:46;;;;;;;;;;;24.20;57.10;;;;;;1557276;76;1966;-54
2023/08/19 02:24:48;;;;;;;;;;;24.20;57.10;;;;;;1554007;75;698;-56
2023/08/19 02:26:50;;;;;;;;;;;24.20;57.10;;;;;;1559455;76;1924;-54
2023/08/19 02:28:52;;;;;;;;;;;24.20;57.10;;;;;;1560511;76;1143;-54
2023/08/19 02:30:54;;;;;;;;;;;24.20;57.10;;;;;;1547416;75;1431;-54
2023/08/19 02:32:55;;;;;;;;;;;24.20;57.00;;;;;;1548450;75;680;-56
2023/08/19 02:34:57;;;;;;;;;;;24.20;57.10;;;;;;1571473;75;709;-54
2023/08/19 02:36:59;;;;;;;;;;;24.10;57.10;;;;;;1529064;76;1184;-53
2023/08/19 02:39:01;;;;;;;;;;;24.20;57.10;;;;;;1553630;75;1162;-55
2023/08/19 02:41:03;;;;;;;;;;;24.20;57.10;;;;;;1549113;76;714;-55
2023/08/19 02:43:05;;;;;;;;;;;24.20;57.20;;;;;;1547183;75;673;-56
2023/08/19 02:45:07;;;;;;;;;;;24.20;57.20;;;;;;1557934;76;1933;-56
2023/08/19 02:47:09;;;;;;;;;;;24.20;57.10;;;;;;1548165;75;675;-55
2023/08/19 02:49:11;;;;;;;;;;;24.20;57.10;;;;;;1557516;75;1120;-56
2023/08/19 02:51:13;;;;;;;;;;;24.20;57.10;;;;;;1545702;75;724;-55
2023/08/19 02:53:14;;;;;;;;;;;24.20;57.20;;;;;;1556270;75;859;-54
2023/08/19 02:55:16;;;;;;;;;;;24.20;57.20;;;;;;1552029;75;591;-56
2023/08/19 02:57:18;;;;;;;;;;;24.20;57.10;;;;;;1561073;76;680;-56
2023/08/19 02:59:20;;;;;;;;;;;24.20;57.20;;;;;;1556037;75;1578;-55
2023/08/19 03:01:23;;;;;;;;;;;24.20;57.20;;;;;;1555264;76;757;-56
2023/08/19 03:03:27;;;;;;;;;;;24.10;57.20;;;;;;1549497;75;716;-56
2023/08/19 03:05:28;;;;;;;;;;;24.10;57.20;;;;;;1550238;76;1923;-56
2023/08/19 03:07:30;;;;;;;;;;;24.10;57.10;;;;;;1551483;75;707;-55
2023/08/19 03:09:32;;;;;;;;;;;24.20;57.20;;;;;;1558452;76;1152;-53
2023/08/19 03:11:35;;;;;;;;;;;24.10;57.20;;;;;;1556041;76;670;-56
2023/08/19 03:13:36;;;;;;;;;;;24.20;57.10;;;;;;1542651;75;1547;-54
2023/08/19 03:15:38;;;;;;;;;;;24.10;57.20;;;;;;1528669;76;723;-53
2023/08/19 03:17:40;;;;;;;;;;;24.10;57.10;;;;;;1560343;74;699;-53
2023/08/19 03:19:42;;;;;;;;;;;24.10;57.10;;;;;;1561940;75;1133;-56
2023/08/19 03:21:44;;;;;;;;;;;24.20;57.10;;;;;;1566089;74;773;-54
2023/08/19 03:23:46;;;;;;;;;;;24.20;57.10;;;;;;1567479;75;694;-55
2023/08/19 03:25:51;;;;;;;;;;;24.20;57.10;;;;;;1565871;75;1934;-56
2023/08/19 03:27:53;;;;;;;;;;;24.20;57.10;;;;;;1562481;74;1549;-56
2023/08/19 03:29:55;;;;;;;;;;;24.20;57.10;;;;;;1567379;75;1150;-54
2023/08/19 03:31:59;;;;;;;;;;;24.20;57.10;;;;;;1565773;74;670;-56
2023/08/19 03:34:01;;;;;;;;;;;24.20;57.10;;;;;;1568199;74;706;-56
2023/08/19 03:36:04;;;;;;;;;;;24.20;57.20;;;;;;1558384;75;708;-55
2023/08/19 03:38:06;;;;;;;;;;;24.10;57.10;;;;;;1555179;75;775;-53
2023/08/19 03:40:08;;;;;;;;;;;24.20;57.20;;;;;;1562081;74;1089;-54
2023/08/19 03:42:10;;;;;;;;;;;24.10;57.10;;;;;;1570514;74;1403;-56
2023/08/19 03:44:12;;;;;;;;;;;24.10;57.10;;;;;;1558526;74;724;-55
2023/08/19 03:46:14;;;;;;;;;;;24.10;57.20;;;;;;1560528;74;1949;-56
2023/08/19 03:48:15;;;;;;;;;;;24.10;57.10;;;;;;1566019;75;691;-54
2023/08/19 03:50:17;;;;;;;;;;;24.10;57.10;;;;;;1557440;74;1133;-54
2023/08/19 03:52:23;;;;;;;;;;;24.20;57.10;;;;;;1568713;75;685;-54
2023/08/19 03:54:23;;;;;;;;;;;24.20;57.10;;;;;;1570631;74;1456;-55
2023/08/19 03:56:25;;;;;;;;;;;24.20;57.20;;;;;;1559376;74;1566;-56
2023/08/19 03:58:27;;;;;;;;;;;24.10;57.10;;;;;;1567534;74;721;-53
2023/08/19 04:00:28;;;;;;;;;;;24.10;57.10;;;;;;1554483;75;1145;-53
2023/08/19 04:02:30;;;;;;;;;;;24.10;57.20;;;;;;1551961;75;758;-56
2023/08/19 04:04:32;;;;;;;;;;;24.10;57.10;;;;;;1542731;76;678;-55
2023/08/19 04:06:34;;;;;;;;;;;24.10;57.10;;;;;;1545743;76;1938;-54
2023/08/19 04:08:36;;;;;;;;;;;24.10;57.10;;;;;;1515322;76;814;-54
2023/08/19 04:10:38;;;;;;;;;;;24.10;57.10;;;;;;1549919;75;1588;-53
2023/08/19 04:12:40;;;;;;;;;;;24.20;57.10;;;;;;1561755;74;702;-53
2023/08/19 04:14:45;;;;;;;;;;;24.10;57.20;;;;;;1563610;74;864;-55
2023/08/19 04:16:47;;;;;;;;;;;24.10;57.10;;;;;;1565071;74;698;-56
2023/08/19 04:18:48;;;;;;;;;;;24.10;57.10;;;;;;1565560;74;1193;-56
2023/08/19 04:20:50;;;;;;;;;;;24.10;57.10;;;;;;1563080;74;679;-55
2023/08/19 04:22:52;;;;;;;;;;;24.10;57.10;;;;;;1569571;74;719;-56
2023/08/19 04:24:54;;;;;;;;;;;24.10;57.10;;;;;;1568524;74;1533;-56
2023/08/19 04:26:56;;;;;;;;;;;24.10;57.10;;;;;;1571465;74;1934;-56
2023/08/19 04:28:58;;;;;;;;;;;24.10;57.10;;;;;;1563826;74;1122;-52
2023/08/19 04:31:03;;;;;;;;;;;24.10;57.10;;;;;;1569496;75;654;-56
2023/08/19 04:33:05;;;;;;;;;;;24.10;57.10;;;;;;1565368;74;669;-55
2023/08/19 04:35:07;;;;;;;;;;;24.10;57.00;;;;;;1556109;74;704;-55
2023/08/19 04:37:09;;;;;;;;;;;24.10;57.10;;;;;;1564068;74;670;-56
2023/08/19 04:39:11;;;;;;;;;;;24.10;57.10;;;;;;1560468;74;1661;-55
2023/08/19 04:41:13;;;;;;;;;;;24.10;57.10;;;;;;1565287;75;764;-54
2023/08/19 04:43:15;;;;;;;;;;;24.10;57.10;;;;;;1565915;75;782;-53
2023/08/19 04:45:16;;;;;;;;;;;24.10;57.10;;;;;;1569507;75;809;-54
2023/08/19 04:47:18;;;;;;;;;;;24.10;57.10;;;;;;1568428;74;1938;-57
2023/08/19 04:49:20;;;;;;;;;;;24.10;57.00;;;;;;1566572;74;1137;-56
2023/08/19 04:51:22;;;;;;;;;;;24.10;57.00;;;;;;1571294;74;1452;-55
2023/08/19 04:53:24;;;;;;;;;;;24.10;57.00;;;;;;1560161;75;737;-55
2023/08/19 04:55:27;;;;;;;;;;;24.20;57.00;;;;;;1571640;74;696;-54
2023/08/19 04:57:29;;;;;;;;;;;24.10;56.90;;;;;;1572638;74;712;-56
2023/08/19 04:59:31;;;;;;;;;;;24.10;56.90;;;;;;1565584;74;1144;-56
2023/08/19 05:01:33;;;;;;;;;;;24.10;57.00;;;;;;1569823;75;719;-54
2023/08/19 05:03:35;;;;;;;;;;;24.00;56.90;;;;;;1570931;74;793;-54
2023/08/19 05:05:37;;;;;;;;;;;24.10;57.00;;;;;;1567362;74;1586;-53
2023/08/19 05:07:38;;;;;;;;;;;24.10;57.10;;;;;;1569840;74;1928;-55
2023/08/19 05:09:40;;;;;;;;;;;24.00;56.90;;;;;;1561773;74;1171;-56
2023/08/19 05:11:42;;;;;;;;;;;24.00;56.90;;;;;;1562298;75;703;-54
2023/08/19 05:13:44;;;;;;;;;;;24.00;56.90;;;;;;1561261;74;796;-55
2023/08/19 05:15:46;;;;;;;;;;;24.00;57.00;;;;;;1565535;75;684;-55
2023/08/19 05:17:48;;;;;;;;;;;24.10;57.10;;;;;;1564485;74;682;-54
2023/08/19 05:19:50;;;;;;;;;;;24.00;57.00;;;;;;1563714;75;1553;-54
2023/08/19 05:21:52;;;;;;;;;;;24.10;57.20;;;;;;1540140;75;666;-54
2023/08/19 05:23:53;;;;;;;;;;;24.00;57.10;;;;;;1530278;76;721;-54
2023/08/19 05:25:55;;;;;;;;;;;24.00;57.10;;;;;;1563299;74;732;-55
2023/08/19 05:27:57;;;;;;;;;;;24.00;57.20;;;;;;1561398;74;1933;-56
2023/08/19 05:29:59;;;;;;;;;;;24.00;57.30;;;;;;1570026;75;1143;-53
2023/08/19 05:32:01;;;;;;;;;;;24.10;57.50;;;;;;1566485;74;664;-54
2023/08/19 05:34:03;;;;;;;;;;;24.10;57.50;;;;;;1549880;74;1549;-55
2023/08/19 05:36:05;;;;;;;;;;;24.10;57.60;;;;;;1565927;74;760;-53
2023/08/19 05:38:07;;;;;;;;;;;24.10;57.60;;;;;;1561052;74;730;-56
2023/08/19 05:40:09;;;;;;;;;;;24.20;57.70;;;;;;1567225;74;1137;-56
2023/08/19 05:42:11;;;;;;;;;;;24.10;57.70;;;;;;1559331;74;692;-56
2023/08/19 05:44:14;;;;;;;;;;;24.00;57.60;;;;;;1570283;75;685;-55
2023/08/19 05:46:16;;;;;;;;;;;24.10;57.80;;;;;;1570711;74;1914;-54
2023/08/19 05:48:17;;;;;;;;;;;24.00;57.70;;;;;;1563706;75;1442;-54
2023/08/19 05:50:20;;;;;;;;;;;24.10;57.90;;;;;;1564889;74;1102;-57
2023/08/19 05:52:22;;;;;;;;;;;24.00;57.70;;;;;;1564477;75;823;-55
2023/08/19 05:54:24;;;;;;;;;;;24.10;57.80;;;;;;1562854;74;727;-54
2023/08/19 05:56:26;;;;;;;;;;;24.00;57.70;;;;;;1569370;74;676;-56
2023/08/19 05:58:28;;;;;;;;;;;24.10;57.80;;;;;;1563940;74;763;-55
2023/08/19 06:00:30;;;;;;;;;;;24.00;57.60;;;;;;1561384;74;1164;-57
2023/08/19 06:02:32;;;;;;;;;;;24.00;57.60;;;;;;1574530;74;1540;-54
2023/08/19 06:04:34;;;;;;;;;;;24.00;57.70;;;;;;1565482;74;779;-55
2023/08/19 06:06:36;;;;;;;;;;;24.00;57.60;;;;;;1559151;74;1934;-56
2023/08/19 06:08:38;;;;;;;;;;;24.10;57.70;;;;;;1566043;74;629;-56
2023/08/19 06:10:43;;;;;;;;;;;24.10;57.60;;;;;;1553710;74;1162;-56
2023/08/19 06:12:44;;;;;;;;;;;24.10;57.60;;;;;;1529017;76;1682;-53
2023/08/19 06:14:45;;;;;;;;;;;24.00;57.40;;;;;;1545493;75;713;-56
2023/08/19 06:16:47;;;;;;;;;;;24.10;57.50;;;;;;1552355;76;1573;-57
2023/08/19 06:18:50;;;;;;;;;;;24.00;57.40;;;;;;1532715;76;1129;-56
2023/08/19 06:20:52;;;;;;;;;;;24.10;57.50;;;;;;1556076;74;707;-56
2023/08/19 06:22:54;;;;;;;;;;;24.10;57.60;;;;;;1556161;75;726;-56
2023/08/19 06:24:55;;;;;;;;;;;24.10;57.60;;;;;;1551114;75;727;-55
2023/08/19 06:26:57;;;;;;;;;;;24.10;57.60;;;;;;1553915;75;1932;-56
2023/08/19 06:28:59;;;;;;;;;;;24.20;57.60;;;;;;1529846;76;1107;-54
2023/08/19 06:31:01;;;;;;;;;;;24.10;57.70;;;;;;1554528;75;1506;-54
2023/08/19 06:33:03;;;;;;;;;;;24.00;57.60;;;;;;1562034;74;734;-52
2023/08/19 06:35:06;;;;;;;;;;;24.10;57.80;;;;;;1554154;74;713;-56
2023/08/19 06:37:07;;;;;;;;;;;24.10;57.90;;;;;;1561764;74;714;-54
2023/08/19 06:39:11;;;;;;;;;;;24.10;57.90;;;;;;1560920;74;1144;-56
2023/08/19 06:41:13;;;;;;;;;;;24.00;57.80;;;;;;1570582;74;1715;-55
2023/08/19 06:43:16;;;;;;;;;;;24.10;58.10;;;;;;1557899;75;720;-55
2023/08/19 06:45:18;;;;;;;;;;;24.10;58.10;;;;;;1562954;74;1477;-53
2023/08/19 06:47:21;;;;;;;;;;;24.10;58.20;;;;;;1567230;74;1927;-56
2023/08/19 06:49:23;;;;;;;;;;;24.10;58.20;;;;;;1560936;74;1137;-53
2023/08/19 06:51:27;;;;;;;;;;;24.20;58.20;;;;;;1526256;78;662;-55
2023/08/19 06:53:29;;;;;;;;;;;24.10;58.10;;;;;;1562388;75;790;-53
2023/08/19 06:55:32;;;;;;;;;;;24.20;57.90;;;;;;1558742;74;719;-54
2023/08/19 06:57:35;;;;;;;;;;;24.10;57.90;;;;;;1564732;74;692;-55
2023/08/19 06:59:38;;;;;;;;;;;24.20;58.00;;;;;;1565074;74;1658;-54
2023/08/19 07:01:40;;;;;;;;;;;24.20;57.80;;;;;;1563671;75;692;-53
2023/08/19 07:03:42;;;;;;;;;;;24.20;58.40;;;;;;1555939;75;777;-54
2023/08/19 07:05:44;;;;;;;;;;;24.20;58.30;;;;;;1553629;74;690;-57
2023/08/19 07:07:50;;;;;;;;;;;24.20;57.80;;;;;;1566675;75;1922;-55
2023/08/19 07:09:52;;;;;;;;;;;24.20;57.80;;;;;;1569355;74;1212;-54
2023/08/19 07:11:55;;;;;;;;;;;24.20;57.70;;;;;;1561925;74;703;-54
2023/08/19 07:13:57;;;;;;;;;;;24.20;57.80;;;;;;1531297;76;1613;-54
2023/08/19 07:16:04;;;;;;;;;;;24.20;57.90;;;;;;1564392;75;743;-55
2023/08/19 07:18:03;;;;;;;;;;;24.20;58.10;;;;;;1565655;74;1602;-54
2023/08/19 07:20:06;;;;;;;;;;;24.20;58.10;;;;;;1563728;74;1164;-53
2023/08/19 07:22:08;;;;;;;;;;;24.20;58.10;;;;;;1563890;74;666;-56
2023/08/19 07:24:10;;;;;;;;;;;24.20;58.10;;;;;;1556588;74;692;-57
2023/08/19 07:26:12;;;;;;;;;;;24.20;57.90;;;;;;1576784;75;1486;-56
2023/08/19 07:28:14;;;;;;;;;;;24.20;57.70;;;;;;1570342;74;1942;-55
2023/08/19 07:30:16;;;;;;;;;;;24.30;57.80;;;;;;1565264;74;1126;-54
2023/08/19 07:32:19;;;;;;;;;;;24.20;58.20;;;;;;1565097;74;744;-55
2023/08/19 07:34:21;;;;;;;;;;;24.20;58.80;;;;;;1570096;74;683;-56
2023/08/19 07:36:23;;;;;;;;;;;24.20;58.20;;;;;;1570920;74;748;-54
2023/08/19 07:38:25;;;;;;;;;;;24.20;58.50;;;;;;1570137;75;718;-56
2023/08/19 07:40:27;;;;;;;;;;;24.20;59.10;;;;;;1565681;74;1364;-55
2023/08/19 07:42:28;;;;;;;;;;;24.20;59.20;;;;;;1565656;75;719;-56
2023/08/19 07:44:30;;;;;;;;;;;24.20;59.30;;;;;;1567116;74;711;-57
2023/08/19 07:46:32;;;;;;;;;;;24.20;59.40;;;;;;1575306;74;699;-55
2023/08/19 07:48:34;;;;;;;;;;;24.20;59.20;;;;;;1560498;74;1940;-55
2023/08/19 07:50:36;;;;;;;;;;;24.30;59.30;;;;;;1571294;74;1057;-56
2023/08/19 07:52:38;;;;;;;;;;;24.20;59.20;;;;;;1571045;74;596;-55
2023/08/19 07:54:41;;;;;;;;;;;24.20;59.00;;;;;;1567560;74;1553;-56
2023/08/19 07:56:42;;;;;;;;;;;24.30;59.30;;;;;;1565678;75;586;-56
2023/08/19 07:58:44;;;;;;;;;;;24.20;59.40;;;;;;1561339;75;1104;-54
2023/08/19 08:00:47;;;;;;;;;;;24.30;59.20;;;;;;1569973;75;664;-56
2023/08/19 08:02:49;;;;;;;;;;;24.20;58.90;;;;;;1548287;74;800;-56
2023/08/19 08:04:51;;;;;;;;;;;24.20;58.60;;;;;;1568391;74;793;-57
2023/08/19 08:06:53;;;;;;;;;;;24.20;58.40;;;;;;1563565;74;733;-56
2023/08/19 08:08:55;;;;;;;;;;;24.20;58.70;;;;;;1558285;74;1927;-57
2023/08/19 08:10:57;;;;;;;;;;;24.30;58.60;;;;;;1566052;74;757;-55
2023/08/19 08:12:59;;;;;;;;;;;24.20;58.60;;;;;;1562241;74;801;-53
2023/08/19 08:15:00;;;;;;;;;;;24.30;58.30;;;;;;1568679;74;684;-56
2023/08/19 08:17:02;;;;;;;;;;;24.20;58.10;;;;;;1558320;74;655;-54
2023/08/19 08:19:04;;;;;;;;;;;24.30;58.20;;;;;;1559061;74;1128;-55
2023/08/19 08:21:06;;;;;;;;;;;24.20;58.00;;;;;;1559604;74;693;-56
2023/08/19 08:23:08;;;;;;;;;;;24.20;58.10;;;;;;1566096;74;1360;-56
2023/08/19 08:25:10;;;;;;;;;;;24.20;58.10;;;;;;1555676;75;731;-54
2023/08/19 08:27:13;;;;;;;;;;;24.20;58.10;;;;;;1563544;74;1939;-53
2023/08/19 08:29:16;;;;;;;;;;;24.30;58.20;;;;;;1557368;74;1155;-56
2023/08/19 08:31:18;;;;;;;;;;;24.20;58.00;;;;;;1570027;74;821;-55
2023/08/19 08:33:20;;;;;;;;;;;24.30;58.00;;;;;;1581708;74;744;-56
2023/08/19 08:35:22;;;;;;;;;;;24.30;58.10;;;;;;1563243;74;658;-56
2023/08/19 08:37:24;;;;;;;;;;;24.20;57.90;;;;;;1565783;74;1433;-54
2023/08/19 08:39:25;;;;;;;;;;;24.30;58.30;;;;;;1563392;74;1211;-55
2023/08/19 08:41:27;;;;;;;;;;;24.30;58.10;;;;;;1570323;74;665;-55
2023/08/19 08:43:30;;;;;;;;;;;24.30;58.00;;;;;;1570849;74;721;-55
2023/08/19 08:45:32;;;;;;;;;;;24.30;58.00;;;;;;1564107;74;711;-56
2023/08/19 08:47:34;;;;;;;;;;;24.30;58.00;;;;;;1568993;74;1934;-55
2023/08/19 08:49:36;;;;;;;;;;;24.20;57.90;;;;;;1568994;74;1097;-54
2023/08/19 08:51:38;;;;;;;;;;;24.30;58.10;;;;;;1571986;74;1626;-55
2023/08/19 08:53:40;;;;;;;;;;;24.30;58.10;;;;;;1562601;74;823;-54
2023/08/19 08:55:42;;;;;;;;;;;24.30;58.10;;;;;;1568270;74;942;-57
2023/08/19 08:57:44;;;;;;;;;;;24.30;58.40;;;;;;1567915;74;737;-56
2023/08/19 08:59:45;;;;;;;;;;;24.30;58.30;;;;;;1558871;74;1149;-54
2023/08/19 09:01:47;;;;;;;;;;;24.30;58.10;;;;;;1558635;74;765;-55
2023/08/19 09:03:49;;;;;;;;;;;24.30;58.30;;;;;;1558447;74;759;-55
2023/08/19 09:05:52;;;;;;;;;;;24.30;58.20;;;;;;1560349;74;1607;-54
2023/08/19 09:07:54;;;;;;;;;;;24.30;58.20;;;;;;1557004;74;1938;-57
2023/08/19 09:09:56;;;;;;;;;;;24.30;58.20;;;;;;1559892;74;1171;-54
2023/08/19 09:11:58;;;;;;;;;;;24.30;58.30;;;;;;1556918;74;813;-57
2023/08/19 09:14:05;;;;;;;;;;;24.30;58.30;;;;;;1565214;74;800;-56
2023/08/19 09:16:10;;;;;;;;;;;24.30;58.40;;;;;;1547249;74;758;-55
2023/08/19 09:18:10;;;;;;;;;;;24.30;58.40;;;;;;1566470;75;1522;-55
2023/08/19 09:20:12;;;;;;;;;;;24.30;58.50;;;;;;1569855;74;1664;-55
2023/08/19 09:22:19;;;;;;;;;;;24.40;58.50;;;;;;1557759;75;691;-53
2023/08/19 09:24:20;;;;;;;;;;;24.30;58.60;;;;;;1558898;74;691;-55
2023/08/19 09:26:22;;;;;;;;;;;24.30;58.60;;;;;;1573515;74;742;-57
2023/08/19 09:28:24;;;;;;;;;;;24.30;58.60;;;;;;1529537;76;1936;-57
2023/08/19 09:30:28;;;;;;;;;;;24.40;58.60;;;;;;1572528;74;1114;-53
2023/08/19 09:32:30;;;;;;;;;;;24.30;58.70;;;;;;1567118;74;1020;-55
2023/08/19 09:34:32;;;;;;;;;;;24.40;58.70;;;;;;1569952;74;1601;-53
2023/08/19 09:36:34;;;;;;;;;;;24.40;58.70;;;;;;1563904;74;688;-57
2023/08/19 09:38:36;;;;;;;;;;;24.30;58.80;;;;;;1570098;74;715;-55
2023/08/19 09:40:38;;;;;;;;;;;24.30;58.80;;;;;;1569958;74;1116;-56
2023/08/19 09:42:40;;;;;;;;;;;24.30;58.80;;;;;;1562419;74;1116;-56
2023/08/19 09:44:43;;;;;;;;;;;24.40;58.90;;;;;;1569418;74;1517;-57
2023/08/19 09:46:45;;;;;;;;;;;24.30;58.90;;;;;;1573895;74;1507;-57
2023/08/19 09:48:53;;;;;;;;;;;24.30;58.90;;;;;;1571968;74;1932;-55
2023/08/19 09:50:55;;;;;;;;;;;24.40;59.00;;;;;;1569001;74;1746;-57
2023/08/19 09:52:58;;;;;;;;;;;24.40;59.10;;;;;;1567909;74;1475;-56
2023/08/19 09:55:00;;;;;;;;;;;24.30;59.10;;;;;;1563153;74;1453;-56
2023/08/19 09:57:02;;;;;;;;;;;24.40;59.20;;;;;;1553860;74;1491;-55
2023/08/19 09:59:05;;;;;;;;;;;24.40;59.20;;;;;;1545351;75;1365;-57
2023/08/19 10:01:07;;;;;;;;;;;24.40;59.20;;;;;;1567241;74;1495;-55
2023/08/19 10:03:09;;;;;;;;;;;24.40;59.20;;;;;;1560836;74;1502;-53
2023/08/19 10:05:11;;;;;;;;;;;24.30;59.20;;;;;;1562925;74;1501;-57
2023/08/19 10:07:13;;;;;;;;;;;24.40;59.20;;;;;;1578914;74;1496;-52
2023/08/19 10:09:16;;;;;;;;;;;24.40;59.40;;;;;;1564412;75;1951;-56
2023/08/19 10:11:19;;;;;;;;;;;24.40;59.30;;;;;;1562476;74;1533;-55
2023/08/19 10:13:21;;;;;;;;;;;24.40;59.30;;;;;;1566120;74;1505;-54
2023/08/19 10:15:23;;;;;;;;;;;24.40;59.30;;;;;;1564316;75;1461;-53
2023/08/19 10:17:25;;;;;;;;;;;24.50;59.40;;;;;;1569563;74;1510;-55
2023/08/19 10:19:27;;;;;;;;;;;24.50;59.40;;;;;;1567037;74;1474;-56
2023/08/19 10:21:30;;;;;;;;;;;24.40;59.40;;;;;;1566206;74;1498;-55
2023/08/19 10:23:32;;;;;;;;;;;24.40;59.50;;;;;;1568214;74;1426;-57
2023/08/19 10:25:34;;;;;;;;;;;24.40;59.40;;;;;;1573447;74;1492;-56
2023/08/19 10:27:36;;;;;;;;;;;24.40;59.40;;;;;;1564253;74;1451;-56
2023/08/19 10:29:38;;;;;;;;;;;24.40;59.40;;;;;;1563563;75;1933;-57
2023/08/19 10:31:42;;;;;;;;;;;24.40;59.50;;;;;;1557891;74;1475;-55
2023/08/19 10:33:44;;;;;;;;;;;24.40;59.40;;;;;;1566794;74;1698;-53
2023/08/19 10:36:02;;;;;;;;;;;24.40;59.30;;;;;;1563489;74;1254;-57
2023/08/19 10:38:05;;;;;;;;;;;24.40;59.30;;;;;;1558268;74;1308;-55
2023/08/19 10:40:09;;;;;;;;;;;24.40;59.20;;;;;;1573961;74;1798;-57
2023/08/19 10:42:11;;;;;;;;;;;24.50;59.20;;;;;;1566676;74;1405;-55
2023/08/19 10:44:13;;;;;;;;;;;24.50;59.20;;;;;;1581820;74;1400;-56
2023/08/19 10:46:20;;;;;;;;;;;24.50;59.10;;;;;;1524109;76;1311;-54
2023/08/19 10:48:32;;;;;;;;;;;24.50;58.90;;;;;;1566335;74;1931;-55
2023/08/19 10:50:37;;;;;;;;;;;24.50;58.80;;;;;;1570362;74;1594;-54
2023/08/19 10:52:56;;;;;;;;;;;24.40;58.60;;;;;;1572542;74;1425;-54
2023/08/19 10:55:00;;;;;;;;;;;24.50;58.50;;;;;;1516290;76;1582;-54
2023/08/19 10:57:23;;;;;;;;;;;24.40;58.20;;;;;;1530622;74;1587;-56
2023/08/19 10:59:25;;;;;;;;;;;24.40;58.10;;;;;;1546736;75;1137;-55
2023/08/19 11:01:34;;;;;;;;;;;24.50;57.90;;;;;;1546753;75;1550;-54
2023/08/19 11:03:33;;;;;;;;;;;24.50;57.80;;;;;;1524802;76;1669;-55
2023/08/19 11:05:35;;;;;;;;;;;24.50;57.60;;;;;;1527329;76;1502;-54
2023/08/19 11:07:41;;;;;;;;;;;24.50;57.40;;;;;;1529618;76;1432;-56
2023/08/19 11:09:44;;;;;;;;;;;24.40;57.10;;;;;;1563038;74;1940;-53
2023/08/19 11:11:46;;;;;;;;;;;24.50;57.10;;;;;;1564510;74;1443;-54
2023/08/19 11:13:48;;;;;;;;;;;24.40;56.90;;;;;;1562966;74;1326;-54
2023/08/19 11:15:51;;;;;;;;;;;24.50;56.90;;;;;;1562554;74;1072;-56
2023/08/19 11:17:53;;;;;;;;;;;24.50;56.80;;;;;;1535250;75;1557;-54
2023/08/19 11:19:55;;;;;;;;;;;24.50;56.80;;;;;;1567261;74;1537;-55
2023/08/19 11:21:57;;;;;;;;;;;24.50;56.60;;;;;;1561279;74;1374;-54
2023/08/19 11:23:59;;;;;;;;;;;24.50;56.50;;;;;;1564740;74;1487;-56
2023/08/19 11:26:01;;;;;;;;;;;24.50;56.50;;;;;;1564082;74;1494;-54
2023/08/19 11:28:04;;;;;;;;;;;24.40;56.30;;;;;;1565511;74;1449;-52
2023/08/19 11:30:07;;;;;;;;;;;24.50;56.40;;;;;;1567963;74;1930;-56
2023/08/19 11:32:09;;;;;;;;;;;24.40;56.20;;;;;;1558202;74;1483;-54
2023/08/19 11:34:12;;;;;;;;;;;24.40;56.40;;;;;;1568501;74;1314;-53
2023/08/19 11:36:14;;;;;;;;;;;24.50;56.40;;;;;;1575098;74;1090;-55
2023/08/19 11:38:16;;;;;;;;;;;24.50;56.40;;;;;;1557928;74;1451;-53
2023/08/19 11:40:17;;;;;;;;;;;24.50;56.40;;;;;;1566893;74;1471;-55
2023/08/19 11:42:19;;;;;;;;;;;24.50;56.40;;;;;;1558163;74;1445;-56
2023/08/19 11:44:22;;;;;;;;;;;24.50;56.40;;;;;;1560305;74;1473;-56
2023/08/19 11:46:30;;;;;;;;;;;24.40;56.30;;;;;;1564704;74;1293;-52
2023/08/19 11:48:32;;;;;;;;;;;24.50;56.30;;;;;;1568606;74;1937;-58
2023/08/19 11:50:38;;;;;;;;;;;24.40;56.10;;;;;;1571201;74;1774;-57
2023/08/19 11:52:41;;;;;;;;;;;24.50;56.30;;;;;;1560380;74;1441;-57
2023/08/19 11:54:45;;;;;;;;;;;24.40;56.10;;;;;;1562022;74;2046;-56
2023/08/19 11:56:50;;;;;;;;;;;24.50;56.30;;;;;;1562161;74;1751;-56
2023/08/19 11:58:52;;;;;;;;;;;24.50;56.30;;;;;;1550154;75;1513;-57
2023/08/19 12:00:55;;;;;;;;;;;24.50;56.30;;;;;;1567285;74;1036;-57
2023/08/19 12:02:57;;;;;;;;;;;24.50;56.30;;;;;;1564922;74;1473;-57
2023/08/19 12:04:59;;;;;;;;;;;24.50;56.30;;;;;;1566231;74;1425;-57
2023/08/19 12:07:05;;;;;;;;;;;24.50;56.30;;;;;;1568359;74;1496;-57
2023/08/19 12:09:07;;;;;;;;;;;24.50;56.40;;;;;;1565914;74;1931;-57